sensor_id;sensor_type;location;lat;lon;timestamp;temperature;humidity
54272;DHT22;40184;53.362;5.216;2022-08-18T00:04:38;19.10;99.90
54272;DHT22;40184;53.362;5.216;2022-08-18T00:07:12;19.50;99.90
54272;DHT22;40184;53.362;5.216;2022-08-18T00:09:39;19.40;99.90
54272;DHT22;40184;53.362;5.216;2022-08-18T00:12:13;19.20;99.90
54272;DHT22;40184;53.362;5.216;2022-08-18T00:14:39;19.30;99.90
54272;DHT22;40184;53.362;5.216;2022-08-18T00:17:05;19.00;99.90
54272;DHT22;40184;53.362;5.216;2022-08-18T00:19:30;19.40;99.90
54272;DHT22;40184;53.362;5.216;2022-08-18T00:21:57;19.00;99.90
54272;DHT22;40184;53.362;5.216;2022-08-18T00:24:23;19.30;99.90
54272;DHT22;40184;53.362;5.216;2022-08-18T00:26:48;19.40;99.90
54272;DHT22;40184;53.362;5.216;2022-08-18T00:29:14;19.00;99.90
54272;DHT22;40184;53.362;5.216;2022-08-18T00:31:39;19.00;99.90
54272;DHT22;40184;53.362;5.216;2022-08-18T00:34:05;19.20;99.90
54272;DHT22;40184;53.362;5.216;2022-08-18T00:36:32;19.30;99.90
54272;DHT22;40184;53.362;5.216;2022-08-18T00:38:59;18.70;99.90
54272;DHT22;40184;53.362;5.216;2022-08-18T00:41:25;18.90;99.90
54272;DHT22;40184;53.362;5.216;2022-08-18T00:43:53;19.20;99.90
54272;DHT22;40184;53.362;5.216;2022-08-18T00:46:33;18.70;99.90
54272;DHT22;40184;53.362;5.216;2022-08-18T00:49:00;19.10;99.90
54272;DHT22;40184;53.362;5.216;2022-08-18T00:51:42;19.30;99.90
54272;DHT22;40184;53.362;5.216;2022-08-18T00:54:25;19.20;99.90
54272;DHT22;40184;53.362;5.216;2022-08-18T00:56:56;19.10;99.90
54272;DHT22;40184;53.362;5.216;2022-08-18T00:59:32;18.90;99.90
54272;DHT22;40184;53.362;5.216;2022-08-18T01:02:02;19.00;99.90
54272;DHT22;40184;53.362;5.216;2022-08-18T01:07:04;19.10;99.90
54272;DHT22;40184;53.362;5.216;2022-08-18T01:09:32;19.20;99.90
54272;DHT22;40184;53.362;5.216;2022-08-18T01:11:58;18.90;99.90
54272;DHT22;40184;53.362;5.216;2022-08-18T01:14:23;19.00;99.90
54272;DHT22;40184;53.362;5.216;2022-08-18T01:16:49;18.80;99.90
54272;DHT22;40184;53.362;5.216;2022-08-18T01:19:35;18.70;99.90
54272;DHT22;40184;53.362;5.216;2022-08-18T01:22:34;19.00;99.90
54272;DHT22;40184;53.362;5.216;2022-08-18T01:25:02;18.60;99.90
54272;DHT22;40184;53.362;5.216;2022-08-18T01:27:48;18.70;99.90
54272;DHT22;40184;53.362;5.216;2022-08-18T01:30:15;19.20;99.90
54272;DHT22;40184;53.362;5.216;2022-08-18T01:32:43;19.40;99.90
54272;DHT22;40184;53.362;5.216;2022-08-18T01:35:12;19.00;99.90
54272;DHT22;40184;53.362;5.216;2022-08-18T01:37:39;19.40;99.90
54272;DHT22;40184;53.362;5.216;2022-08-18T01:40:07;19.10;99.90
54272;DHT22;40184;53.362;5.216;2022-08-18T01:42:35;18.70;99.90
54272;DHT22;40184;53.362;5.216;2022-08-18T01:45:01;18.90;99.90
54272;DHT22;40184;53.362;5.216;2022-08-18T01:47:29;19.20;99.90
54272;DHT22;40184;53.362;5.216;2022-08-18T01:49:56;18.90;99.90
54272;DHT22;40184;53.362;5.216;2022-08-18T01:52:23;19.20;99.90
54272;DHT22;40184;53.362;5.216;2022-08-18T01:54:50;18.90;99.90
54272;DHT22;40184;53.362;5.216;2022-08-18T01:57:17;18.70;99.90
54272;DHT22;40184;53.362;5.216;2022-08-18T01:59:43;19.30;99.90
54272;DHT22;40184;53.362;5.216;2022-08-18T02:02:13;19.10;99.90
54272;DHT22;40184;53.362;5.216;2022-08-18T02:04:41;19.10;99.90
54272;DHT22;40184;53.362;5.216;2022-08-18T02:07:10;19.20;99.90
54272;DHT22;40184;53.362;5.216;2022-08-18T02:09:37;19.00;99.90
54272;DHT22;40184;53.362;5.216;2022-08-18T02:12:05;18.90;99.90
54272;DHT22;40184;53.362;5.216;2022-08-18T02:14:32;18.90;99.90
54272;DHT22;40184;53.362;5.216;2022-08-18T02:16:59;18.70;99.90
54272;DHT22;40184;53.362;5.216;2022-08-18T02:19:25;18.90;99.90
54272;DHT22;40184;53.362;5.216;2022-08-18T02:21:51;19.40;99.90
54272;DHT22;40184;53.362;5.216;2022-08-18T02:24:17;19.00;99.90
54272;DHT22;40184;53.362;5.216;2022-08-18T02:26:43;19.10;99.90
54272;DHT22;40184;53.362;5.216;2022-08-18T02:29:09;19.30;99.90
54272;DHT22;40184;53.362;5.216;2022-08-18T02:31:35;19.00;99.90
54272;DHT22;40184;53.362;5.216;2022-08-18T02:34:01;18.70;99.90
54272;DHT22;40184;53.362;5.216;2022-08-18T02:36:27;19.10;99.90
54272;DHT22;40184;53.362;5.216;2022-08-18T02:38:53;18.80;99.90
54272;DHT22;40184;53.362;5.216;2022-08-18T02:41:19;19.00;99.90
54272;DHT22;40184;53.362;5.216;2022-08-18T02:43:46;19.20;99.90
54272;DHT22;40184;53.362;5.216;2022-08-18T02:46:13;18.80;99.90
54272;DHT22;40184;53.362;5.216;2022-08-18T02:48:39;19.10;99.90
54272;DHT22;40184;53.362;5.216;2022-08-18T02:51:11;18.90;99.90
54272;DHT22;40184;53.362;5.216;2022-08-18T02:53:38;19.10;99.90
54272;DHT22;40184;53.362;5.216;2022-08-18T02:56:13;19.20;99.90
54272;DHT22;40184;53.362;5.216;2022-08-18T02:59:07;18.80;99.90
54272;DHT22;40184;53.362;5.216;2022-08-18T03:01:36;18.80;99.90
54272;DHT22;40184;53.362;5.216;2022-08-18T03:04:04;18.90;99.90
54272;DHT22;40184;53.362;5.216;2022-08-18T03:06:33;19.10;99.90
54272;DHT22;40184;53.362;5.216;2022-08-18T03:08:59;19.30;99.90
54272;DHT22;40184;53.362;5.216;2022-08-18T03:11:27;18.90;99.90
54272;DHT22;40184;53.362;5.216;2022-08-18T03:13:54;18.60;99.90
54272;DHT22;40184;53.362;5.216;2022-08-18T03:16:21;18.90;99.90
54272;DHT22;40184;53.362;5.216;2022-08-18T03:18:50;19.20;99.90
54272;DHT22;40184;53.362;5.216;2022-08-18T03:21:20;19.00;99.90
54272;DHT22;40184;53.362;5.216;2022-08-18T03:23:46;19.10;99.90
54272;DHT22;40184;53.362;5.216;2022-08-18T03:26:14;18.70;99.90
54272;DHT22;40184;53.362;5.216;2022-08-18T03:28:43;18.70;99.90
54272;DHT22;40184;53.362;5.216;2022-08-18T03:31:10;18.60;99.90
54272;DHT22;40184;53.362;5.216;2022-08-18T03:33:36;18.90;99.90
54272;DHT22;40184;53.362;5.216;2022-08-18T03:36:04;19.30;99.90
54272;DHT22;40184;53.362;5.216;2022-08-18T03:38:30;18.70;99.90
54272;DHT22;40184;53.362;5.216;2022-08-18T03:40:56;19.20;99.90
54272;DHT22;40184;53.362;5.216;2022-08-18T03:43:22;19.20;99.90
54272;DHT22;40184;53.362;5.216;2022-08-18T03:45:47;19.30;99.90
54272;DHT22;40184;53.362;5.216;2022-08-18T03:48:13;18.90;99.90
54272;DHT22;40184;53.362;5.216;2022-08-18T03:50:39;18.80;99.90
54272;DHT22;40184;53.362;5.216;2022-08-18T03:53:05;18.70;99.90
54272;DHT22;40184;53.362;5.216;2022-08-18T03:55:31;19.30;99.90
54272;DHT22;40184;53.362;5.216;2022-08-18T03:58:00;19.10;99.90
54272;DHT22;40184;53.362;5.216;2022-08-18T04:00:30;18.80;99.90
54272;DHT22;40184;53.362;5.216;2022-08-18T04:02:57;18.90;99.90
54272;DHT22;40184;53.362;5.216;2022-08-18T04:05:26;19.30;99.90
54272;DHT22;40184;53.362;5.216;2022-08-18T04:07:53;19.30;99.90
54272;DHT22;40184;53.362;5.216;2022-08-18T04:10:19;19.20;99.90
54272;DHT22;40184;53.362;5.216;2022-08-18T04:12:44;19.10;99.90
54272;DHT22;40184;53.362;5.216;2022-08-18T04:15:10;18.70;99.90
54272;DHT22;40184;53.362;5.216;2022-08-18T04:17:36;18.70;99.90
54272;DHT22;40184;53.362;5.216;2022-08-18T04:20:03;19.20;99.90
54272;DHT22;40184;53.362;5.216;2022-08-18T04:22:29;19.10;99.90
54272;DHT22;40184;53.362;5.216;2022-08-18T04:24:58;19.10;99.90
54272;DHT22;40184;53.362;5.216;2022-08-18T04:27:25;19.10;99.90
54272;DHT22;40184;53.362;5.216;2022-08-18T04:29:51;19.20;99.90
54272;DHT22;40184;53.362;5.216;2022-08-18T04:32:18;18.60;99.90
54272;DHT22;40184;53.362;5.216;2022-08-18T04:34:44;18.80;99.90
54272;DHT22;40184;53.362;5.216;2022-08-18T04:37:11;19.20;99.90
54272;DHT22;40184;53.362;5.216;2022-08-18T04:39:38;19.00;99.90
54272;DHT22;40184;53.362;5.216;2022-08-18T04:42:04;18.50;99.90
54272;DHT22;40184;53.362;5.216;2022-08-18T04:44:30;19.10;99.90
54272;DHT22;40184;53.362;5.216;2022-08-18T04:46:56;18.80;99.90
54272;DHT22;40184;53.362;5.216;2022-08-18T04:49:24;18.60;99.90
54272;DHT22;40184;53.362;5.216;2022-08-18T04:51:51;18.60;99.90
54272;DHT22;40184;53.362;5.216;2022-08-18T04:54:37;18.60;99.90
54272;DHT22;40184;53.362;5.216;2022-08-18T04:57:12;18.50;99.90
54272;DHT22;40184;53.362;5.216;2022-08-18T04:59:40;18.50;99.90
54272;DHT22;40184;53.362;5.216;2022-08-18T05:02:06;18.80;99.90
54272;DHT22;40184;53.362;5.216;2022-08-18T05:04:35;18.90;99.90
54272;DHT22;40184;53.362;5.216;2022-08-18T05:07:05;18.40;99.90
54272;DHT22;40184;53.362;5.216;2022-08-18T05:09:32;18.80;99.90
54272;DHT22;40184;53.362;5.216;2022-08-18T05:11:57;18.70;99.90
54272;DHT22;40184;53.362;5.216;2022-08-18T05:14:23;18.80;99.90
54272;DHT22;40184;53.362;5.216;2022-08-18T05:16:49;18.80;99.90
54272;DHT22;40184;53.362;5.216;2022-08-18T05:19:19;18.30;99.90
54272;DHT22;40184;53.362;5.216;2022-08-18T05:21:48;18.70;99.90
54272;DHT22;40184;53.362;5.216;2022-08-18T05:24:13;18.40;99.90
54272;DHT22;40184;53.362;5.216;2022-08-18T05:26:39;18.40;99.90
54272;DHT22;40184;53.362;5.216;2022-08-18T05:29:06;18.60;99.90
54272;DHT22;40184;53.362;5.216;2022-08-18T05:31:32;18.70;99.90
54272;DHT22;40184;53.362;5.216;2022-08-18T05:33:58;18.30;99.90
54272;DHT22;40184;53.362;5.216;2022-08-18T05:39:25;18.30;99.90
54272;DHT22;40184;53.362;5.216;2022-08-18T05:42:14;18.40;99.90
54272;DHT22;40184;53.362;5.216;2022-08-18T05:44:48;18.30;99.90
54272;DHT22;40184;53.362;5.216;2022-08-18T05:47:29;18.60;99.90
54272;DHT22;40184;53.362;5.216;2022-08-18T05:50:06;18.30;99.90
54272;DHT22;40184;53.362;5.216;2022-08-18T05:58:24;18.20;99.90
54272;DHT22;40184;53.362;5.216;2022-08-18T06:00:54;18.20;99.90
54272;DHT22;40184;53.362;5.216;2022-08-18T06:03:26;18.60;99.90
54272;DHT22;40184;53.362;5.216;2022-08-18T06:06:00;18.80;99.90
54272;DHT22;40184;53.362;5.216;2022-08-18T06:08:31;18.40;99.90
54272;DHT22;40184;53.362;5.216;2022-08-18T06:11:01;18.60;99.90
54272;DHT22;40184;53.362;5.216;2022-08-18T06:13:27;18.80;99.90
54272;DHT22;40184;53.362;5.216;2022-08-18T06:16:04;18.30;99.90
54272;DHT22;40184;53.362;5.216;2022-08-18T06:18:52;18.30;99.90
54272;DHT22;40184;53.362;5.216;2022-08-18T06:24:04;18.90;99.90
54272;DHT22;40184;53.362;5.216;2022-08-18T06:26:54;18.60;99.90
54272;DHT22;40184;53.362;5.216;2022-08-18T06:29:34;18.30;99.90
54272;DHT22;40184;53.362;5.216;2022-08-18T06:37:22;18.70;99.90
54272;DHT22;40184;53.362;5.216;2022-08-18T06:39:52;18.60;99.90
54272;DHT22;40184;53.362;5.216;2022-08-18T06:42:36;18.80;99.90
54272;DHT22;40184;53.362;5.216;2022-08-18T06:45:07;18.40;99.90
54272;DHT22;40184;53.362;5.216;2022-08-18T06:47:48;18.90;99.90
54272;DHT22;40184;53.362;5.216;2022-08-18T06:50:31;18.60;99.90
54272;DHT22;40184;53.362;5.216;2022-08-18T06:53:02;18.60;99.90
54272;DHT22;40184;53.362;5.216;2022-08-18T06:55:37;18.30;99.90
54272;DHT22;40184;53.362;5.216;2022-08-18T07:00:53;19.00;99.90
54272;DHT22;40184;53.362;5.216;2022-08-18T07:03:48;18.40;99.90
54272;DHT22;40184;53.362;5.216;2022-08-18T07:08:51;18.90;99.90
54272;DHT22;40184;53.362;5.216;2022-08-18T07:11:28;18.50;99.90
54272;DHT22;40184;53.362;5.216;2022-08-18T07:13:56;19.00;99.90
54272;DHT22;40184;53.362;5.216;2022-08-18T07:16:24;18.60;99.90
54272;DHT22;40184;53.362;5.216;2022-08-18T07:18:50;18.90;99.90
54272;DHT22;40184;53.362;5.216;2022-08-18T07:21:28;18.50;99.90
54272;DHT22;40184;53.362;5.216;2022-08-18T07:24:10;18.50;99.90
54272;DHT22;40184;53.362;5.216;2022-08-18T07:27:10;19.00;99.90
54272;DHT22;40184;53.362;5.216;2022-08-18T07:29:58;18.90;99.90
54272;DHT22;40184;53.362;5.216;2022-08-18T07:32:31;19.00;99.90
54272;DHT22;40184;53.362;5.216;2022-08-18T07:35:02;19.20;99.90
54272;DHT22;40184;53.362;5.216;2022-08-18T07:37:38;18.70;99.90
54272;DHT22;40184;53.362;5.216;2022-08-18T07:40:30;19.30;99.90
54272;DHT22;40184;53.362;5.216;2022-08-18T07:43:37;18.80;99.90
54272;DHT22;40184;53.362;5.216;2022-08-18T07:46:11;19.00;99.90
54272;DHT22;40184;53.362;5.216;2022-08-18T07:48:37;19.20;99.90
54272;DHT22;40184;53.362;5.216;2022-08-18T07:51:23;19.60;99.90
54272;DHT22;40184;53.362;5.216;2022-08-18T07:53:58;19.10;99.90
54272;DHT22;40184;53.362;5.216;2022-08-18T07:56:38;19.10;99.90
54272;DHT22;40184;53.362;5.216;2022-08-18T08:07:13;20.20;99.90
54272;DHT22;40184;53.362;5.216;2022-08-18T08:12:24;20.50;99.90
54272;DHT22;40184;53.362;5.216;2022-08-18T08:15:19;20.10;99.90
54272;DHT22;40184;53.362;5.216;2022-08-18T08:18:17;20.30;99.90
54272;DHT22;40184;53.362;5.216;2022-08-18T08:21:02;20.50;99.90
54272;DHT22;40184;53.362;5.216;2022-08-18T08:23:49;20.90;99.90
54272;DHT22;40184;53.362;5.216;2022-08-18T08:29:02;20.70;99.90
54272;DHT22;40184;53.362;5.216;2022-08-18T08:36:38;20.80;99.90
54272;DHT22;40184;53.362;5.216;2022-08-18T08:41:55;21.30;99.90
54272;DHT22;40184;53.362;5.216;2022-08-18T08:44:37;21.30;99.90
54272;DHT22;40184;53.362;5.216;2022-08-18T08:47:25;20.60;99.90
54272;DHT22;40184;53.362;5.216;2022-08-18T08:50:00;20.90;99.90
54272;DHT22;40184;53.362;5.216;2022-08-18T08:55:24;21.20;99.90
54272;DHT22;40184;53.362;5.216;2022-08-18T08:58:19;21.10;99.90
54272;DHT22;40184;53.362;5.216;2022-08-18T09:00:42;20.90;99.90
54272;DHT22;40184;53.362;5.216;2022-08-18T09:17:14;21.70;99.90
54272;DHT22;40184;53.362;5.216;2022-08-18T09:20:14;21.80;99.90
54272;DHT22;40184;53.362;5.216;2022-08-18T09:22:51;22.00;99.90
54272;DHT22;40184;53.362;5.216;2022-08-18T09:25:47;21.90;99.90
54272;DHT22;40184;53.362;5.216;2022-08-18T09:33:52;22.20;99.90
54272;DHT22;40184;53.362;5.216;2022-08-18T09:36:38;22.40;99.90
54272;DHT22;40184;53.362;5.216;2022-08-18T09:39:34;21.80;99.90
54272;DHT22;40184;53.362;5.216;2022-08-18T09:42:31;22.30;99.90
54272;DHT22;40184;53.362;5.216;2022-08-18T09:45:01;22.20;99.90
54272;DHT22;40184;53.362;5.216;2022-08-18T09:55:06;21.90;99.90
54272;DHT22;40184;53.362;5.216;2022-08-18T09:57:36;22.10;99.90
54272;DHT22;40184;53.362;5.216;2022-08-18T10:13:03;22.70;99.90
54272;DHT22;40184;53.362;5.216;2022-08-18T10:15:45;22.50;99.90
54272;DHT22;40184;53.362;5.216;2022-08-18T10:32:15;21.80;99.90
54272;DHT22;40184;53.362;5.216;2022-08-18T10:34:41;21.60;99.90
54272;DHT22;40184;53.362;5.216;2022-08-18T10:37:25;21.70;99.90
54272;DHT22;40184;53.362;5.216;2022-08-18T10:40:04;21.30;99.90
54272;DHT22;40184;53.362;5.216;2022-08-18T10:43:08;21.70;99.90
54272;DHT22;40184;53.362;5.216;2022-08-18T10:45:36;22.00;99.90
54272;DHT22;40184;53.362;5.216;2022-08-18T10:50:56;22.60;99.90
54272;DHT22;40184;53.362;5.216;2022-08-18T10:59:16;22.80;99.90
54272;DHT22;40184;53.362;5.216;2022-08-18T11:04:44;22.30;99.90
54272;DHT22;40184;53.362;5.216;2022-08-18T11:09:46;22.70;99.90
54272;DHT22;40184;53.362;5.216;2022-08-18T11:12:14;22.90;99.90
54272;DHT22;40184;53.362;5.216;2022-08-18T11:19:37;23.10;99.90
54272;DHT22;40184;53.362;5.216;2022-08-18T11:22:04;23.40;99.90
54272;DHT22;40184;53.362;5.216;2022-08-18T11:24:31;23.70;99.90
54272;DHT22;40184;53.362;5.216;2022-08-18T11:27:02;23.70;99.90
54272;DHT22;40184;53.362;5.216;2022-08-18T11:29:32;23.80;99.90
54272;DHT22;40184;53.362;5.216;2022-08-18T11:34:46;24.00;99.90
54272;DHT22;40184;53.362;5.216;2022-08-18T11:37:35;24.30;99.90
54272;DHT22;40184;53.362;5.216;2022-08-18T11:40:06;24.10;99.90
54272;DHT22;40184;53.362;5.216;2022-08-18T11:42:38;24.20;99.90
54272;DHT22;40184;53.362;5.216;2022-08-18T11:45:15;24.10;99.90
54272;DHT22;40184;53.362;5.216;2022-08-18T11:48:15;24.10;99.90
54272;DHT22;40184;53.362;5.216;2022-08-18T11:58:38;23.90;99.90
54272;DHT22;40184;53.362;5.216;2022-08-18T12:01:04;24.30;99.90
54272;DHT22;40184;53.362;5.216;2022-08-18T12:03:41;24.50;99.90
54272;DHT22;40184;53.362;5.216;2022-08-18T12:06:19;24.60;99.90
54272;DHT22;40184;53.362;5.216;2022-08-18T12:11:21;24.30;99.90
54272;DHT22;40184;53.362;5.216;2022-08-18T12:13:57;24.20;99.90
54272;DHT22;40184;53.362;5.216;2022-08-18T12:16:52;24.40;99.90
54272;DHT22;40184;53.362;5.216;2022-08-18T12:19:19;24.10;99.90
54272;DHT22;40184;53.362;5.216;2022-08-18T12:21:56;23.70;99.90
54272;DHT22;40184;53.362;5.216;2022-08-18T12:24:32;23.80;99.90
54272;DHT22;40184;53.362;5.216;2022-08-18T12:26:58;24.00;99.90
54272;DHT22;40184;53.362;5.216;2022-08-18T12:29:25;24.10;99.90
54272;DHT22;40184;53.362;5.216;2022-08-18T12:31:53;23.90;99.90
54272;DHT22;40184;53.362;5.216;2022-08-18T12:34:22;23.70;99.90
54272;DHT22;40184;53.362;5.216;2022-08-18T12:36:57;23.50;99.90
54272;DHT22;40184;53.362;5.216;2022-08-18T12:39:23;24.00;99.90
54272;DHT22;40184;53.362;5.216;2022-08-18T12:41:49;24.10;99.90
54272;DHT22;40184;53.362;5.216;2022-08-18T12:44:14;24.50;99.90
54272;DHT22;40184;53.362;5.216;2022-08-18T12:46:41;24.10;99.90
54272;DHT22;40184;53.362;5.216;2022-08-18T12:49:15;24.10;99.90
54272;DHT22;40184;53.362;5.216;2022-08-18T12:51:41;23.90;99.90
54272;DHT22;40184;53.362;5.216;2022-08-18T12:54:07;23.80;99.90
54272;DHT22;40184;53.362;5.216;2022-08-18T12:56:33;23.60;99.90
54272;DHT22;40184;53.362;5.216;2022-08-18T12:59:01;23.50;99.90
54272;DHT22;40184;53.362;5.216;2022-08-18T13:01:27;23.70;99.90
54272;DHT22;40184;53.362;5.216;2022-08-18T13:03:54;24.00;99.90
54272;DHT22;40184;53.362;5.216;2022-08-18T13:06:22;23.90;99.90
54272;DHT22;40184;53.362;5.216;2022-08-18T13:08:49;23.90;99.90
54272;DHT22;40184;53.362;5.216;2022-08-18T13:11:16;24.20;99.90
54272;DHT22;40184;53.362;5.216;2022-08-18T13:13:42;24.50;99.90
54272;DHT22;40184;53.362;5.216;2022-08-18T13:16:09;24.50;99.90
54272;DHT22;40184;53.362;5.216;2022-08-18T13:18:36;24.00;99.90
54272;DHT22;40184;53.362;5.216;2022-08-18T13:21:03;24.00;99.90
54272;DHT22;40184;53.362;5.216;2022-08-18T13:23:29;24.00;99.90
54272;DHT22;40184;53.362;5.216;2022-08-18T13:25:57;24.50;99.90
54272;DHT22;40184;53.362;5.216;2022-08-18T13:28:23;24.80;99.90
54272;DHT22;40184;53.362;5.216;2022-08-18T13:30:49;24.50;99.90
54272;DHT22;40184;53.362;5.216;2022-08-18T13:33:16;24.20;99.90
54272;DHT22;40184;53.362;5.216;2022-08-18T13:35:43;23.70;99.90
54272;DHT22;40184;53.362;5.216;2022-08-18T13:38:10;23.60;99.90
54272;DHT22;40184;53.362;5.216;2022-08-18T13:40:37;23.60;99.90
54272;DHT22;40184;53.362;5.216;2022-08-18T13:43:02;24.00;99.90
54272;DHT22;40184;53.362;5.216;2022-08-18T13:45:28;24.70;99.90
54272;DHT22;40184;53.362;5.216;2022-08-18T13:47:54;25.40;99.90
54272;DHT22;40184;53.362;5.216;2022-08-18T13:50:20;25.30;99.90
54272;DHT22;40184;53.362;5.216;2022-08-18T13:52:47;25.20;99.90
54272;DHT22;40184;53.362;5.216;2022-08-18T13:55:16;24.70;99.90
54272;DHT22;40184;53.362;5.216;2022-08-18T13:57:43;25.00;99.90
54272;DHT22;40184;53.362;5.216;2022-08-18T14:00:18;25.40;99.90
54272;DHT22;40184;53.362;5.216;2022-08-18T14:02:46;25.40;99.90
54272;DHT22;40184;53.362;5.216;2022-08-18T14:05:13;25.60;99.90
54272;DHT22;40184;53.362;5.216;2022-08-18T14:07:40;26.50;99.90
54272;DHT22;40184;53.362;5.216;2022-08-18T14:10:08;27.50;99.90
54272;DHT22;40184;53.362;5.216;2022-08-18T14:12:35;26.70;99.30
54272;DHT22;40184;53.362;5.216;2022-08-18T14:15:04;25.80;99.60
54272;DHT22;40184;53.362;5.216;2022-08-18T14:17:31;25.20;99.90
54272;DHT22;40184;53.362;5.216;2022-08-18T14:19:57;24.80;99.90
54272;DHT22;40184;53.362;5.216;2022-08-18T14:22:42;25.00;99.90
54272;DHT22;40184;53.362;5.216;2022-08-18T14:25:27;24.80;99.90
54272;DHT22;40184;53.362;5.216;2022-08-18T14:28:11;25.70;99.90
54272;DHT22;40184;53.362;5.216;2022-08-18T14:30:37;26.80;99.90
54272;DHT22;40184;53.362;5.216;2022-08-18T14:33:07;27.70;99.30
54272;DHT22;40184;53.362;5.216;2022-08-18T14:35:33;27.90;98.80
54272;DHT22;40184;53.362;5.216;2022-08-18T14:37:59;27.30;99.00
54272;DHT22;40184;53.362;5.216;2022-08-18T14:40:27;26.70;99.30
54272;DHT22;40184;53.362;5.216;2022-08-18T14:42:53;25.90;99.80
54272;DHT22;40184;53.362;5.216;2022-08-18T14:45:19;25.50;99.90
54272;DHT22;40184;53.362;5.216;2022-08-18T14:47:45;25.10;99.90
54272;DHT22;40184;53.362;5.216;2022-08-18T14:50:11;25.00;99.90
54272;DHT22;40184;53.362;5.216;2022-08-18T14:52:39;24.80;99.90
54272;DHT22;40184;53.362;5.216;2022-08-18T14:55:06;24.70;99.90
54272;DHT22;40184;53.362;5.216;2022-08-18T14:57:32;24.40;99.90
54272;DHT22;40184;53.362;5.216;2022-08-18T14:59:57;24.10;99.90
54272;DHT22;40184;53.362;5.216;2022-08-18T15:02:23;23.80;99.90
54272;DHT22;40184;53.362;5.216;2022-08-18T15:04:49;23.60;99.90
54272;DHT22;40184;53.362;5.216;2022-08-18T15:07:14;23.50;99.90
54272;DHT22;40184;53.362;5.216;2022-08-18T15:09:41;23.30;99.90
54272;DHT22;40184;53.362;5.216;2022-08-18T15:12:06;23.20;99.90
54272;DHT22;40184;53.362;5.216;2022-08-18T15:14:33;23.20;99.90
54272;DHT22;40184;53.362;5.216;2022-08-18T15:17:01;23.20;99.90
54272;DHT22;40184;53.362;5.216;2022-08-18T15:19:28;23.10;99.90
54272;DHT22;40184;53.362;5.216;2022-08-18T15:21:53;22.90;99.90
54272;DHT22;40184;53.362;5.216;2022-08-18T15:24:39;22.80;99.90
54272;DHT22;40184;53.362;5.216;2022-08-18T15:27:32;22.70;99.90
54272;DHT22;40184;53.362;5.216;2022-08-18T15:30:02;22.90;99.90
54272;DHT22;40184;53.362;5.216;2022-08-18T15:32:29;23.20;99.90
54272;DHT22;40184;53.362;5.216;2022-08-18T15:34:55;23.70;99.90
54272;DHT22;40184;53.362;5.216;2022-08-18T15:37:20;23.80;99.90
54272;DHT22;40184;53.362;5.216;2022-08-18T15:39:58;23.70;99.90
54272;DHT22;40184;53.362;5.216;2022-08-18T15:42:24;23.80;99.90
54272;DHT22;40184;53.362;5.216;2022-08-18T15:44:50;24.80;99.90
54272;DHT22;40184;53.362;5.216;2022-08-18T15:47:17;26.00;99.90
54272;DHT22;40184;53.362;5.216;2022-08-18T15:49:43;26.80;99.90
54272;DHT22;40184;53.362;5.216;2022-08-18T15:52:11;27.40;99.20
54272;DHT22;40184;53.362;5.216;2022-08-18T15:54:37;27.90;98.50
54272;DHT22;40184;53.362;5.216;2022-08-18T15:57:03;28.00;98.00
54272;DHT22;40184;53.362;5.216;2022-08-18T15:59:28;28.00;98.00
54272;DHT22;40184;53.362;5.216;2022-08-18T16:01:54;27.20;98.10
54272;DHT22;40184;53.362;5.216;2022-08-18T16:04:20;26.40;98.70
54272;DHT22;40184;53.362;5.216;2022-08-18T16:06:45;25.50;99.50
54272;DHT22;40184;53.362;5.216;2022-08-18T16:09:15;25.00;99.90
54272;DHT22;40184;53.362;5.216;2022-08-18T16:11:41;24.50;99.90
54272;DHT22;40184;53.362;5.216;2022-08-18T16:14:06;24.20;99.90
54272;DHT22;40184;53.362;5.216;2022-08-18T16:16:33;24.00;99.90
54272;DHT22;40184;53.362;5.216;2022-08-18T16:18:59;24.00;99.90
54272;DHT22;40184;53.362;5.216;2022-08-18T16:21:26;24.40;99.90
54272;DHT22;40184;53.362;5.216;2022-08-18T16:23:52;24.90;99.90
54272;DHT22;40184;53.362;5.216;2022-08-18T16:26:19;25.30;99.90
54272;DHT22;40184;53.362;5.216;2022-08-18T16:28:48;26.10;99.90
54272;DHT22;40184;53.362;5.216;2022-08-18T16:31:17;27.20;99.20
54272;DHT22;40184;53.362;5.216;2022-08-18T16:33:45;27.70;98.50
54272;DHT22;40184;53.362;5.216;2022-08-18T16:36:11;28.30;97.70
54272;DHT22;40184;53.362;5.216;2022-08-18T16:38:39;29.10;97.30
54272;DHT22;40184;53.362;5.216;2022-08-18T16:41:10;29.30;96.80
54272;DHT22;40184;53.362;5.216;2022-08-18T16:43:37;28.90;96.50
54272;DHT22;40184;53.362;5.216;2022-08-18T16:46:14;28.60;96.50
54272;DHT22;40184;53.362;5.216;2022-08-18T16:48:41;28.70;96.60
54272;DHT22;40184;53.362;5.216;2022-08-18T16:51:12;29.10;96.50
54272;DHT22;40184;53.362;5.216;2022-08-18T16:53:37;29.40;96.00
54272;DHT22;40184;53.362;5.216;2022-08-18T16:56:03;29.80;95.90
54272;DHT22;40184;53.362;5.216;2022-08-18T16:58:34;30.00;95.60
54272;DHT22;40184;53.362;5.216;2022-08-18T17:01:18;29.80;95.20
54272;DHT22;40184;53.362;5.216;2022-08-18T17:04:02;29.40;95.30
54272;DHT22;40184;53.362;5.216;2022-08-18T17:06:33;29.70;95.10
54272;DHT22;40184;53.362;5.216;2022-08-18T17:09:00;30.10;94.70
54272;DHT22;40184;53.362;5.216;2022-08-18T17:11:26;29.50;94.90
54272;DHT22;40184;53.362;5.216;2022-08-18T17:13:54;29.50;95.10
54272;DHT22;40184;53.362;5.216;2022-08-18T17:16:22;29.60;95.10
54272;DHT22;40184;53.362;5.216;2022-08-18T17:18:52;29.90;95.00
54272;DHT22;40184;53.362;5.216;2022-08-18T17:21:21;29.80;95.00
54272;DHT22;40184;53.362;5.216;2022-08-18T17:23:49;29.90;94.90
54272;DHT22;40184;53.362;5.216;2022-08-18T17:26:43;29.90;94.70
54272;DHT22;40184;53.362;5.216;2022-08-18T17:29:22;29.60;94.20
54272;DHT22;40184;53.362;5.216;2022-08-18T17:32:02;29.40;94.80
54272;DHT22;40184;53.362;5.216;2022-08-18T17:34:37;29.40;94.90
54272;DHT22;40184;53.362;5.216;2022-08-18T17:37:09;29.20;94.80
54272;DHT22;40184;53.362;5.216;2022-08-18T17:39:49;29.20;94.90
54272;DHT22;40184;53.362;5.216;2022-08-18T17:42:16;29.20;94.50
54272;DHT22;40184;53.362;5.216;2022-08-18T17:45:05;29.00;95.20
54272;DHT22;40184;53.362;5.216;2022-08-18T17:47:37;28.50;95.30
54272;DHT22;40184;53.362;5.216;2022-08-18T17:50:16;27.10;96.20
54272;DHT22;40184;53.362;5.216;2022-08-18T17:53:04;25.80;97.20
54272;DHT22;40184;53.362;5.216;2022-08-18T18:01:32;23.30;99.90
54272;DHT22;40184;53.362;5.216;2022-08-18T18:04:00;22.90;99.90
54272;DHT22;40184;53.362;5.216;2022-08-18T18:06:37;22.60;99.90
54272;DHT22;40184;53.362;5.216;2022-08-18T18:09:09;22.30;99.90
54272;DHT22;40184;53.362;5.216;2022-08-18T18:11:39;22.10;99.90
54272;DHT22;40184;53.362;5.216;2022-08-18T18:17:13;21.70;99.90
54272;DHT22;40184;53.362;5.216;2022-08-18T18:19:41;21.50;99.90
54272;DHT22;40184;53.362;5.216;2022-08-18T18:24:55;21.30;99.90